createdAt,value
2023-05-14T00:01:21.180Z,6.70
2023-05-14T00:03:48.866Z,6.28
2023-05-14T00:06:17.646Z,7.00
2023-05-14T00:08:45.609Z,6.78
2023-05-14T00:11:13.284Z,7.30
2023-05-14T00:13:42.500Z,7.10
2023-05-14T00:16:10.533Z,6.72
2023-05-14T00:18:38.253Z,6.80
2023-05-14T00:21:05.908Z,6.40
2023-05-14T00:23:33.897Z,6.95
2023-05-14T00:26:01.473Z,6.68
2023-05-14T00:28:29.071Z,6.75
2023-05-14T00:30:58.367Z,7.45
2023-05-14T00:33:26.011Z,6.93
2023-05-14T00:35:53.577Z,7.22
2023-05-14T00:38:21.470Z,6.50
2023-05-14T00:40:49.010Z,6.75
2023-05-14T00:43:16.796Z,5.97
2023-05-14T00:45:45.165Z,7.63
2023-05-14T00:48:15.102Z,6.97
2023-05-14T00:50:42.987Z,7.22
2023-05-14T00:53:11.281Z,6.93
2023-05-14T00:55:40.554Z,6.80
2023-05-14T00:58:10.503Z,7.32
2023-05-14T01:00:39.506Z,7.28
2023-05-14T01:03:08.256Z,6.72
2023-05-14T01:05:46.182Z,7.13
2023-05-14T01:08:24.221Z,6.10
2023-05-14T01:10:55.492Z,7.05
2023-05-14T01:13:31.611Z,6.00
2023-05-14T01:16:01.052Z,6.20
2023-05-14T01:18:31.094Z,6.30
2023-05-14T01:21:00.145Z,6.63
2023-05-14T01:23:29.181Z,6.90
2023-05-14T01:25:56.884Z,7.07
2023-05-14T01:28:32.864Z,6.25
2023-05-14T01:31:06.865Z,6.90
2023-05-14T01:33:36.377Z,6.80
2023-05-14T01:36:04.914Z,7.70
2023-05-14T01:38:35.718Z,7.55
2023-05-14T01:41:05.162Z,7.68
2023-05-14T01:43:33.480Z,6.20
2023-05-14T01:46:01.158Z,6.72
2023-05-14T01:48:28.830Z,7.00
2023-05-14T01:50:56.634Z,6.90
2023-05-14T01:53:24.561Z,6.45
2023-05-14T01:55:53.557Z,6.85
2023-05-14T01:58:21.308Z,7.43
2023-05-14T02:00:48.966Z,6.47
2023-05-14T02:03:16.508Z,6.63
2023-05-14T02:05:44.757Z,7.05
2023-05-14T02:08:12.503Z,6.38
2023-05-14T02:10:41.053Z,6.72
2023-05-14T02:13:10.342Z,6.50
2023-05-14T02:15:38.603Z,6.50
2023-05-14T02:18:06.450Z,7.15
2023-05-14T02:20:34.749Z,6.97
2023-05-14T02:23:02.340Z,6.85
2023-05-14T02:25:29.945Z,7.05
2023-05-14T02:27:57.763Z,6.40
2023-05-14T02:30:26.835Z,7.00
2023-05-14T02:32:54.566Z,6.65
2023-05-14T02:35:22.469Z,7.00
2023-05-14T02:37:50.265Z,7.22
2023-05-14T02:40:18.063Z,7.35
2023-05-14T02:42:46.045Z,6.90
2023-05-14T02:45:13.605Z,6.78
2023-05-14T02:47:42.849Z,6.25
2023-05-14T02:50:11.023Z,7.70
2023-05-14T02:52:38.647Z,7.70
2023-05-14T02:55:07.060Z,6.80
2023-05-14T02:57:35.350Z,6.65
2023-05-14T03:00:02.994Z,6.78
2023-05-14T03:02:31.325Z,6.75
2023-05-14T03:05:01.019Z,6.63
2023-05-14T03:07:29.346Z,7.20
2023-05-14T03:09:57.242Z,6.65
2023-05-14T03:12:25.114Z,6.30
2023-05-14T03:14:53.149Z,6.45
2023-05-14T03:17:20.874Z,5.90
2023-05-14T03:19:48.590Z,7.93
2023-05-14T03:22:17.692Z,6.40
2023-05-14T03:24:45.473Z,7.22
2023-05-14T03:27:13.181Z,6.43
2023-05-14T03:29:40.731Z,6.20
2023-05-14T03:32:08.486Z,6.03
2023-05-14T03:34:36.410Z,6.55
2023-05-14T03:37:04.429Z,6.50
2023-05-14T03:39:33.876Z,6.13
2023-05-14T03:42:01.595Z,6.78
2023-05-14T03:44:29.560Z,6.13
2023-05-14T03:46:57.372Z,5.88
2023-05-14T03:49:25.558Z,6.70
2023-05-14T03:51:53.375Z,6.80
2023-05-14T03:54:21.068Z,6.65
2023-05-14T03:56:50.062Z,7.03
2023-05-14T03:59:17.946Z,6.85
2023-05-14T04:01:45.575Z,6.72
2023-05-14T04:04:13.347Z,7.13
2023-05-14T04:06:41.183Z,6.70
2023-05-14T04:09:08.939Z,7.35
2023-05-14T04:11:39.614Z,7.40
2023-05-14T04:14:08.881Z,8.00
2023-05-14T04:16:39.606Z,8.63
2023-05-14T04:19:07.391Z,8.40
2023-05-14T04:21:35.177Z,9.45
2023-05-14T04:24:03.306Z,8.90
2023-05-14T04:26:30.971Z,9.57
2023-05-14T04:28:58.571Z,10.82
2023-05-14T04:31:28.025Z,10.43
2023-05-14T04:33:55.601Z,10.90
2023-05-14T04:36:23.280Z,10.23
2023-05-14T04:38:50.959Z,11.25
2023-05-14T04:41:18.712Z,11.90
2023-05-14T04:43:47.334Z,13.32
2023-05-14T04:46:15.125Z,14.13
2023-05-14T04:48:44.394Z,14.25
2023-05-14T04:51:11.988Z,11.63
2023-05-14T04:53:39.757Z,12.82
2023-05-14T04:56:07.907Z,14.63
2023-05-14T04:58:35.481Z,16.02
2023-05-14T05:01:04.659Z,14.98
2023-05-14T05:03:32.521Z,15.98
2023-05-14T05:06:01.773Z,18.08
2023-05-14T05:08:29.657Z,17.08
2023-05-14T05:10:57.407Z,14.70
2023-05-14T05:13:25.071Z,12.98
2023-05-14T05:15:52.874Z,16.20
2023-05-14T05:18:21.366Z,11.20
2023-05-14T05:20:48.973Z,11.55
2023-05-14T05:23:18.216Z,9.63
2023-05-14T05:25:46.033Z,9.57
2023-05-14T05:28:13.594Z,7.95
2023-05-14T05:30:41.251Z,7.47
2023-05-14T05:33:09.324Z,7.55
2023-05-14T05:35:37.341Z,7.28
2023-05-14T05:38:05.054Z,6.68
2023-05-14T05:40:34.573Z,6.00
2023-05-14T05:43:02.118Z,6.80
2023-05-14T05:45:30.570Z,5.35
2023-05-14T05:47:58.473Z,6.35
2023-05-14T05:50:28.551Z,6.30
2023-05-14T05:53:01.520Z,6.65
2023-05-14T05:55:29.557Z,6.30
2023-05-14T05:57:58.717Z,6.07
2023-05-14T06:00:26.747Z,6.10
2023-05-14T06:02:54.536Z,5.93
2023-05-14T06:05:22.372Z,5.72
2023-05-14T06:07:50.113Z,6.00
2023-05-14T06:10:17.862Z,6.30
2023-05-14T06:12:45.724Z,6.75
2023-05-14T06:15:15.128Z,6.00
2023-05-14T06:17:43.062Z,6.13
2023-05-14T06:20:11.702Z,6.63
2023-05-14T06:22:40.237Z,6.15
2023-05-14T06:25:08.756Z,6.78
2023-05-14T06:27:36.733Z,6.22
2023-05-14T06:30:05.287Z,7.03
2023-05-14T06:32:34.818Z,6.38
2023-05-14T06:35:02.555Z,6.18
2023-05-14T06:37:30.539Z,6.63
2023-05-14T06:39:58.194Z,7.20
2023-05-14T06:42:26.105Z,6.78
2023-05-14T06:44:53.891Z,6.20
2023-05-14T06:47:21.474Z,6.80
2023-05-14T06:49:50.633Z,6.50
2023-05-14T06:52:18.357Z,6.93
2023-05-14T06:54:45.887Z,6.78
2023-05-14T06:57:13.583Z,7.00
2023-05-14T06:59:41.326Z,6.65
2023-05-14T07:02:09.033Z,7.70
2023-05-14T07:04:36.787Z,6.75
2023-05-14T07:07:06.188Z,7.20
2023-05-14T07:09:33.894Z,6.88
2023-05-14T07:12:01.700Z,7.13
2023-05-14T07:14:29.653Z,7.35
2023-05-14T07:16:57.416Z,7.60
2023-05-14T07:19:25.161Z,7.38
2023-05-14T07:21:53.270Z,7.20
2023-05-14T07:24:22.287Z,6.93
2023-05-14T07:26:50.136Z,7.40
2023-05-14T07:29:17.910Z,7.28
2023-05-14T07:31:45.546Z,7.13
2023-05-14T07:34:13.336Z,7.55
2023-05-14T07:36:41.207Z,7.50
2023-05-14T07:39:08.908Z,9.45
2023-05-14T07:41:38.184Z,7.20
2023-05-14T07:44:05.838Z,7.00
2023-05-14T07:46:33.463Z,6.53
2023-05-14T07:49:01.122Z,7.10
2023-05-14T07:51:28.924Z,8.07
2023-05-14T07:53:56.478Z,7.63
2023-05-14T07:56:24.250Z,8.02
2023-05-14T07:58:53.450Z,7.90
2023-05-14T08:01:21.100Z,8.15
2023-05-14T08:03:49.111Z,8.23
2023-05-14T08:06:16.935Z,8.63
2023-05-14T08:08:44.708Z,8.85
2023-05-14T08:11:12.382Z,7.53
2023-05-14T08:13:40.129Z,7.07
2023-05-14T08:16:09.242Z,7.47
2023-05-14T08:18:36.967Z,6.95
2023-05-14T08:21:05.173Z,6.75
2023-05-14T08:23:33.173Z,6.95
2023-05-14T08:26:00.893Z,6.78
2023-05-14T08:28:28.495Z,6.55
2023-05-14T08:30:56.092Z,6.15
2023-05-14T08:33:25.275Z,5.90
2023-05-14T08:35:53.676Z,6.75
2023-05-14T08:38:21.261Z,7.05
2023-05-14T08:40:54.020Z,6.00
2023-05-14T08:43:28.090Z,7.03
2023-05-14T08:46:01.240Z,7.72
2023-05-14T08:48:33.733Z,7.00
2023-05-14T08:51:02.451Z,6.93
2023-05-14T08:53:31.182Z,6.60
2023-05-14T08:56:01.652Z,6.40
2023-05-14T08:58:29.606Z,7.22
2023-05-14T09:00:57.212Z,6.45
2023-05-14T09:03:25.191Z,6.38
2023-05-14T09:05:55.212Z,6.40
2023-05-14T09:08:23.011Z,8.88
2023-05-14T09:10:50.734Z,6.95
2023-05-14T09:13:18.622Z,6.30
2023-05-14T09:15:48.097Z,6.15
2023-05-14T09:18:15.914Z,7.32
2023-05-14T09:20:43.899Z,6.53
2023-05-14T09:23:12.867Z,6.35
2023-05-14T09:25:40.851Z,8.07
2023-05-14T09:28:09.634Z,6.03
2023-05-14T09:30:37.953Z,7.28
2023-05-14T09:33:05.559Z,6.72
2023-05-14T09:35:33.641Z,6.32
2023-05-14T09:38:01.441Z,6.07
2023-05-14T09:40:30.468Z,5.50
2023-05-14T09:43:15.882Z,5.90
2023-05-14T09:45:43.569Z,6.00
2023-05-14T09:48:11.293Z,5.85
2023-05-14T09:50:42.765Z,5.88
2023-05-14T09:53:10.441Z,6.68
2023-05-14T09:55:39.889Z,6.53
2023-05-14T09:58:07.704Z,5.95
2023-05-14T10:00:36.214Z,5.68
2023-05-14T10:03:06.949Z,6.68
2023-05-14T10:05:36.075Z,6.57
2023-05-14T10:08:09.104Z,6.20
2023-05-14T10:10:39.589Z,6.07
2023-05-14T10:13:12.773Z,6.18
2023-05-14T10:15:47.607Z,5.82
2023-05-14T10:18:19.402Z,5.80
2023-05-14T10:20:50.755Z,6.82
2023-05-14T10:23:18.926Z,5.65
2023-05-14T10:25:48.002Z,6.05
2023-05-14T10:28:16.257Z,6.60
2023-05-14T10:30:47.009Z,5.93
2023-05-14T10:33:15.779Z,6.15
2023-05-14T10:36:17.499Z,6.25
2023-05-14T10:38:56.410Z,6.70
2023-05-14T10:41:31.289Z,6.38
2023-05-14T10:44:02.612Z,6.78
2023-05-14T10:49:03.404Z,6.50
2023-05-14T10:51:36.597Z,6.25
2023-05-14T10:54:04.553Z,6.82
2023-05-14T10:56:34.140Z,6.53
2023-05-14T10:59:02.979Z,7.22
2023-05-14T11:01:32.165Z,6.35
2023-05-14T11:04:00.059Z,6.80
2023-05-14T11:06:28.402Z,6.80
2023-05-14T11:08:56.772Z,6.95
2023-05-14T11:11:24.480Z,7.63
2023-05-14T11:13:57.179Z,7.07
2023-05-14T11:16:27.946Z,7.18
2023-05-14T11:19:01.962Z,6.55
2023-05-14T11:21:29.976Z,6.40
2023-05-14T11:23:57.868Z,7.18
2023-05-14T11:26:25.735Z,6.60
2023-05-14T11:28:54.942Z,7.05
2023-05-14T11:31:22.727Z,7.28
2023-05-14T11:33:52.410Z,6.55
2023-05-14T11:36:20.404Z,6.78
2023-05-14T11:38:48.425Z,6.80
2023-05-14T11:41:16.217Z,7.00
2023-05-14T11:43:44.099Z,7.90
2023-05-14T11:46:18.299Z,7.47
2023-05-14T11:48:46.324Z,7.53
2023-05-14T11:51:13.930Z,7.30
2023-05-14T11:53:41.745Z,6.85
2023-05-14T11:56:10.083Z,6.82
2023-05-14T11:58:37.760Z,6.15
2023-05-14T12:01:05.827Z,8.70
2023-05-14T12:03:35.780Z,6.50
2023-05-14T12:06:07.158Z,6.88
2023-05-14T12:08:34.890Z,7.40
2023-05-14T12:11:02.515Z,6.80
2023-05-14T12:13:31.222Z,7.30
2023-05-14T12:16:01.027Z,7.47
2023-05-14T12:18:30.973Z,7.10
2023-05-14T12:21:04.914Z,6.95
2023-05-14T12:23:33.274Z,6.13
2023-05-14T12:26:05.232Z,6.65
2023-05-14T12:28:34.869Z,7.07
2023-05-14T12:33:31.657Z,6.57
2023-05-14T12:36:02.486Z,6.55
2023-05-14T12:38:39.756Z,6.45
2023-05-14T12:41:07.326Z,7.30
2023-05-14T12:43:35.336Z,6.30
2023-05-14T12:46:03.192Z,7.28
2023-05-14T12:48:30.855Z,6.90
2023-05-14T12:50:58.389Z,7.03
2023-05-14T12:53:26.126Z,6.20
2023-05-14T12:55:55.225Z,5.85
2023-05-14T12:58:22.993Z,5.90
2023-05-14T13:00:50.891Z,6.10
2023-05-14T13:03:18.553Z,6.10
2023-05-14T13:05:46.113Z,6.20
2023-05-14T13:08:14.179Z,6.57
2023-05-14T13:10:41.723Z,7.03
2023-05-14T13:13:11.422Z,6.93
2023-05-14T13:15:39.378Z,6.53
2023-05-14T13:18:09.356Z,6.23
2023-05-14T13:20:37.185Z,7.45
2023-05-14T13:23:05.106Z,6.80
2023-05-14T13:25:32.902Z,6.25
2023-05-14T13:28:00.449Z,5.88
2023-05-14T13:30:29.838Z,6.50
2023-05-14T13:32:57.685Z,6.68
2023-05-14T13:35:25.601Z,6.40
2023-05-14T13:37:53.873Z,6.72
2023-05-14T13:40:21.557Z,6.85
2023-05-14T13:42:49.228Z,6.20
2023-05-14T13:45:17.745Z,6.18
2023-05-14T13:47:46.984Z,7.18
2023-05-14T13:50:15.532Z,6.47
2023-05-14T13:52:43.434Z,6.65
2023-05-14T13:55:11.211Z,6.32
2023-05-14T13:57:39.645Z,7.28
2023-05-14T14:00:08.713Z,7.30
2023-05-14T14:02:38.558Z,6.60
2023-05-14T14:05:08.830Z,6.10
2023-05-14T14:07:36.692Z,5.88
2023-05-14T14:10:05.045Z,6.65
2023-05-14T14:12:33.066Z,6.18
2023-05-14T14:15:00.972Z,5.97
2023-05-14T14:17:28.595Z,6.20
2023-05-14T14:19:56.251Z,5.95
2023-05-14T14:22:27.317Z,6.60
2023-05-14T14:24:56.780Z,6.30
2023-05-14T14:27:24.392Z,5.80
2023-05-14T14:29:52.194Z,5.85
2023-05-14T14:32:20.162Z,6.32
2023-05-14T14:34:47.940Z,6.55
2023-05-14T14:37:15.499Z,5.38
2023-05-14T14:39:44.671Z,6.32
2023-05-14T14:42:12.721Z,6.43
2023-05-14T14:44:40.270Z,6.10
2023-05-14T14:47:08.080Z,6.10
2023-05-14T14:49:36.320Z,6.18
2023-05-14T14:52:04.158Z,6.43
2023-05-14T14:54:32.172Z,5.70
2023-05-14T14:57:01.384Z,5.55
2023-05-14T14:59:28.948Z,5.80
2023-05-14T15:01:56.926Z,5.97
2023-05-14T15:04:24.692Z,5.72
2023-05-14T15:06:52.313Z,6.07
2023-05-14T15:09:20.080Z,6.15
2023-05-14T15:11:47.736Z,5.80
2023-05-14T15:14:16.816Z,5.25
2023-05-14T15:16:44.699Z,6.40
2023-05-14T15:19:12.742Z,5.75
2023-05-14T15:21:40.356Z,6.10
2023-05-14T15:24:11.573Z,5.88
2023-05-14T15:26:39.453Z,7.15
2023-05-14T15:29:07.029Z,6.03
2023-05-14T15:31:36.609Z,7.90
2023-05-14T15:34:04.792Z,6.43
2023-05-14T15:36:33.143Z,6.50
2023-05-14T15:39:00.884Z,6.80
2023-05-14T15:41:28.908Z,6.30
2023-05-14T15:43:56.560Z,6.43
2023-05-14T15:46:24.344Z,6.07
2023-05-14T15:48:53.427Z,5.95
2023-05-14T15:51:21.015Z,5.80
2023-05-14T15:53:48.825Z,6.97
2023-05-14T15:56:16.512Z,7.15
2023-05-14T15:58:44.131Z,6.15
2023-05-14T16:01:11.849Z,5.70
2023-05-14T16:03:39.735Z,5.78
2023-05-14T16:06:08.997Z,5.95
2023-05-14T16:08:37.316Z,5.75
2023-05-14T16:11:05.486Z,5.60
2023-05-14T16:13:33.673Z,5.78
2023-05-14T16:16:01.609Z,6.18
2023-05-14T16:18:29.787Z,5.75
2023-05-14T16:20:57.387Z,5.70
2023-05-14T16:23:26.653Z,5.25
2023-05-14T16:25:54.369Z,4.97
2023-05-14T16:28:22.053Z,5.80
2023-05-14T16:30:49.778Z,6.43
2023-05-14T16:33:17.672Z,5.78
2023-05-14T16:35:45.312Z,5.88
2023-05-14T16:38:13.057Z,6.40
2023-05-14T16:40:42.191Z,5.65
2023-05-14T16:43:09.761Z,6.00
2023-05-14T16:45:37.915Z,5.65
2023-05-14T16:48:06.082Z,5.70
2023-05-14T16:50:33.986Z,6.53
2023-05-14T16:53:01.688Z,5.88
2023-05-14T16:55:29.639Z,6.72
2023-05-14T16:57:58.631Z,8.20
2023-05-14T17:00:26.508Z,7.15
2023-05-14T17:02:54.318Z,7.50
2023-05-14T17:05:22.450Z,7.45
2023-05-14T17:07:50.240Z,6.78
2023-05-14T17:10:20.881Z,6.40
2023-05-14T17:12:48.718Z,6.30
2023-05-14T17:15:17.904Z,6.43
2023-05-14T17:17:48.425Z,6.78
2023-05-14T17:20:16.900Z,7.50
2023-05-14T17:22:45.079Z,8.02
2023-05-14T17:25:12.733Z,8.70
2023-05-14T17:27:40.367Z,9.93
2023-05-14T17:30:09.301Z,8.65
2023-05-14T17:32:38.689Z,9.20
2023-05-14T17:35:06.575Z,9.35
2023-05-14T17:37:35.197Z,7.75
2023-05-14T17:40:03.087Z,6.70
2023-05-14T17:42:30.920Z,7.20
2023-05-14T17:44:58.991Z,6.63
2023-05-14T17:47:26.628Z,6.63
2023-05-14T17:49:55.687Z,6.50
2023-05-14T17:52:23.430Z,9.07
2023-05-14T17:54:51.047Z,6.63
2023-05-14T17:57:20.762Z,6.68
2023-05-14T17:59:48.590Z,7.70
2023-05-14T18:02:22.396Z,6.97
2023-05-14T18:04:50.432Z,6.57
2023-05-14T18:07:20.315Z,7.68
2023-05-14T18:09:48.416Z,9.52
2023-05-14T18:12:16.598Z,9.25
2023-05-14T18:14:45.658Z,8.82
2023-05-14T18:17:14.185Z,9.18
2023-05-14T18:19:42.285Z,8.68
2023-05-14T18:22:10.013Z,8.40
2023-05-14T18:24:40.620Z,8.73
2023-05-14T18:27:08.979Z,8.77
2023-05-14T18:29:37.000Z,8.57
2023-05-14T18:32:07.974Z,7.70
2023-05-14T18:34:35.978Z,7.72
2023-05-14T18:37:03.704Z,7.63
2023-05-14T18:39:31.413Z,9.43
2023-05-14T18:42:00.660Z,8.48
2023-05-14T18:44:34.138Z,7.65
2023-05-14T18:47:01.887Z,8.68
2023-05-14T18:49:29.608Z,8.75
2023-05-14T18:51:57.500Z,8.13
2023-05-14T18:54:35.566Z,8.50
2023-05-14T18:57:05.574Z,8.38
2023-05-14T18:59:33.393Z,8.70
2023-05-14T19:02:01.081Z,8.48
2023-05-14T19:04:33.555Z,7.95
2023-05-14T19:07:02.195Z,8.77
2023-05-14T19:09:30.060Z,10.63
2023-05-14T19:11:57.716Z,10.02
2023-05-14T19:14:26.965Z,11.55
2023-05-14T19:16:54.958Z,9.73
2023-05-14T19:19:22.886Z,10.10
2023-05-14T19:21:54.266Z,10.90
2023-05-14T19:24:26.322Z,10.65
2023-05-14T19:26:56.414Z,10.32
2023-05-14T19:29:26.258Z,10.02
2023-05-14T19:32:04.100Z,10.20
2023-05-14T19:34:36.110Z,9.60
2023-05-14T19:37:04.456Z,9.98
2023-05-14T19:39:33.056Z,9.60
2023-05-14T19:42:00.638Z,9.52
2023-05-14T19:44:29.876Z,8.25
2023-05-14T19:46:57.739Z,8.88
2023-05-14T19:49:25.402Z,8.77
2023-05-14T19:51:53.135Z,9.60
2023-05-14T19:54:20.818Z,10.07
2023-05-14T19:56:48.864Z,10.80
2023-05-14T19:59:16.717Z,8.95
2023-05-14T20:01:45.904Z,9.02
2023-05-14T20:04:13.578Z,8.55
2023-05-14T20:06:41.463Z,8.55
2023-05-14T20:09:09.755Z,8.98
2023-05-14T20:11:37.925Z,9.68
2023-05-14T20:14:05.711Z,9.52
2023-05-14T20:16:33.525Z,8.65
2023-05-14T20:19:02.669Z,9.45
2023-05-14T20:21:30.784Z,8.43
2023-05-14T20:23:58.615Z,8.95
2023-05-14T20:26:26.301Z,9.05
2023-05-14T20:28:54.111Z,8.98
2023-05-14T20:31:21.898Z,8.60
2023-05-14T20:33:49.541Z,9.27
2023-05-14T20:36:19.080Z,8.73
2023-05-14T20:38:46.942Z,9.48
2023-05-14T20:41:16.077Z,10.00
2023-05-14T20:43:43.738Z,10.38
2023-05-14T20:46:11.506Z,9.63
2023-05-14T20:48:39.319Z,8.90
2023-05-14T20:51:07.037Z,9.90
2023-05-14T20:53:36.499Z,8.52
2023-05-14T20:56:04.167Z,9.05
2023-05-14T20:58:32.027Z,9.63
2023-05-14T21:01:00.423Z,8.52
2023-05-14T21:03:28.301Z,8.27
2023-05-14T21:05:56.165Z,7.68
2023-05-14T21:08:23.766Z,8.55
2023-05-14T21:10:52.961Z,8.95
2023-05-14T21:13:21.016Z,10.18
2023-05-14T21:15:49.061Z,9.05
2023-05-14T21:18:16.650Z,9.35
2023-05-14T21:20:44.341Z,8.95
2023-05-14T21:23:12.023Z,9.00
2023-05-14T21:25:39.641Z,10.18
2023-05-14T21:28:08.848Z,9.20
2023-05-14T21:30:36.492Z,9.40
2023-05-14T21:33:04.335Z,9.48
2023-05-14T21:35:32.219Z,10.00
2023-05-14T21:38:00.181Z,9.95
2023-05-14T21:40:27.799Z,9.90
2023-05-14T21:42:55.521Z,10.25
2023-05-14T21:45:24.962Z,9.13
2023-05-14T21:47:52.972Z,9.48
2023-05-14T21:50:20.692Z,9.23
2023-05-14T21:52:48.441Z,9.95
2023-05-14T21:55:16.167Z,9.18
2023-05-14T21:57:44.456Z,10.77
2023-05-14T22:00:13.436Z,10.95
2023-05-14T22:02:42.700Z,10.05
2023-05-14T22:05:10.620Z,9.98
2023-05-14T22:07:38.368Z,10.80
2023-05-14T22:10:06.521Z,9.80
2023-05-14T22:12:34.351Z,8.05
2023-05-14T22:15:02.278Z,8.70
2023-05-14T22:17:30.834Z,8.68
2023-05-14T22:20:00.138Z,9.80
2023-05-14T22:22:27.768Z,10.80
2023-05-14T22:24:55.821Z,10.63
2023-05-14T22:27:23.642Z,10.27
2023-05-14T22:29:51.326Z,10.88
2023-05-14T22:32:18.889Z,11.20
2023-05-14T22:34:46.648Z,9.95
2023-05-14T22:37:15.834Z,9.93
2023-05-14T22:39:43.592Z,10.60
2023-05-14T22:42:11.350Z,11.15
2023-05-14T22:44:39.186Z,10.02
2023-05-14T22:47:07.065Z,11.05
2023-05-14T22:49:34.924Z,10.20
2023-05-14T22:52:02.570Z,10.48
2023-05-14T22:54:31.831Z,10.65
2023-05-14T22:56:59.662Z,10.30
2023-05-14T22:59:27.281Z,11.63
2023-05-14T23:01:54.927Z,10.85
2023-05-14T23:04:22.848Z,10.73
2023-05-14T23:06:50.665Z,11.93
2023-05-14T23:09:18.229Z,12.02
2023-05-14T23:11:47.493Z,10.45
2023-05-14T23:14:15.507Z,11.52
2023-05-14T23:16:43.162Z,10.35
2023-05-14T23:19:11.179Z,10.00
2023-05-14T23:21:39.126Z,10.85
2023-05-14T23:24:07.350Z,10.57
2023-05-14T23:26:35.601Z,10.15
2023-05-14T23:29:04.650Z,10.30
2023-05-14T23:34:15.554Z,9.77
2023-05-14T23:36:43.153Z,9.73
2023-05-14T23:39:11.160Z,10.57
2023-05-14T23:41:38.970Z,9.88
2023-05-14T23:44:07.906Z,8.23
2023-05-14T23:46:35.915Z,10.00
2023-05-14T23:49:04.056Z,10.88
2023-05-14T23:51:31.758Z,9.60
2023-05-14T23:53:59.304Z,8.65
2023-05-14T23:56:27.744Z,9.48
2023-05-14T23:58:55.586Z,10.00
